Time;durP1;ratioP1;P1;durP2;ratioP2;P2;SDS_P1;SDS_P2;PMS_P1;PMS_P2;Temp;Humidity;BMP_temperature;BMP_pressure;BME280_temperature;BME280_humidity;BME280_pressure;Samples;Min_cycle;Max_cycle;Signal;HPM_P1;HPM_P2
2024/04/15 00:00:47;;;;;;;9.98;2.20;;;8.00;99.90;;;;;;5415043;26;20015;-71
2024/04/15 00:03:12;;;;;;;7.80;2.00;;;8.10;99.90;;;;;;5415208;26;20011;-71
2024/04/15 00:05:40;;;;;;;5.90;2.88;;;8.00;99.90;;;;;;5414783;26;20014;-71
2024/04/15 00:08:06;;;;;;;5.35;1.77;;;8.00;99.90;;;;;;5415215;26;20014;-71
2024/04/15 00:10:36;;;;;;;6.35;1.95;;;7.90;99.90;;;;;;5383617;26;20011;-71
2024/04/15 00:13:02;;;;;;;6.70;2.40;;;7.80;99.90;;;;;;5406926;26;19995;-71
2024/04/15 00:15:27;;;;;;;7.55;1.98;;;7.80;99.90;;;;;;5399612;26;20015;-71
2024/04/15 00:17:54;;;;;;;6.47;2.65;;;7.80;99.90;;;;;;5369077;26;20014;-72
2024/04/15 00:20:20;;;;;;;7.70;2.33;;;7.70;99.90;;;;;;5359605;26;20555;-71
2024/04/15 00:22:46;;;;;;;9.07;2.45;;;7.70;99.90;;;;;;5382965;26;20001;-71
2024/04/15 00:25:11;;;;;;;10.02;1.73;;;7.70;99.90;;;;;;5382255;26;20478;-71
2024/04/15 00:27:37;;;;;;;9.23;2.05;;;7.60;99.90;;;;;;5382671;26;20015;-71
2024/04/15 00:30:05;;;;;;;9.52;2.15;;;7.60;99.90;;;;;;5382459;26;20004;-71
2024/04/15 00:32:31;;;;;;;9.13;2.22;;;7.50;99.90;;;;;;5382567;26;20012;-73
2024/04/15 00:34:57;;;;;;;9.32;1.90;;;7.40;99.90;;;;;;5396710;26;20093;-71
2024/04/15 00:37:22;;;;;;;5.95;1.90;;;7.40;99.90;;;;;;5409446;26;20011;-71
2024/04/15 00:39:48;;;;;;;4.63;2.00;;;7.40;99.90;;;;;;5417842;26;20004;-71
2024/04/15 00:42:14;;;;;;;9.18;2.97;;;7.30;99.90;;;;;;5418092;26;20455;-71
2024/04/15 00:44:39;;;;;;;9.85;1.88;;;7.30;99.90;;;;;;5417457;26;20078;-71
2024/04/15 00:47:08;;;;;;;6.10;1.67;;;7.20;99.90;;;;;;5417739;26;20508;-71
2024/04/15 00:49:34;;;;;;;7.95;2.22;;;7.10;99.90;;;;;;5418055;26;20077;-71
2024/04/15 00:52:02;;;;;;;5.97;2.15;;;7.10;99.90;;;;;;5386493;26;20013;-71
2024/04/15 00:54:29;;;;;;;9.75;2.42;;;7.10;99.90;;;;;;5417823;26;20014;-71
2024/04/15 00:56:56;;;;;;;10.38;2.00;;;7.10;99.90;;;;;;5418127;26;20049;-71
2024/04/15 00:59:22;;;;;;;5.40;2.00;;;7.10;99.90;;;;;;5417821;26;20015;-71
2024/04/15 01:01:48;;;;;;;7.07;2.65;;;7.00;99.90;;;;;;5417538;26;20003;-71
2024/04/15 01:04:14;;;;;;;6.43;1.98;;;7.10;99.90;;;;;;5386094;26;20015;-71
2024/04/15 01:06:40;;;;;;;12.90;2.75;;;7.00;99.90;;;;;;5417728;26;20004;-71
2024/04/15 01:09:06;;;;;;;8.30;2.08;;;7.00;99.90;;;;;;5417804;26;20018;-71
2024/04/15 01:11:33;;;;;;;9.45;2.08;;;7.00;99.90;;;;;;5417398;26;20003;-71
2024/04/15 01:14:01;;;;;;;6.13;2.25;;;7.00;99.90;;;;;;5417118;26;20346;-71
2024/04/15 01:16:36;;;;;;;9.48;2.25;;;7.00;99.90;;;;;;5386156;26;20032;-71
2024/04/15 01:19:02;;;;;;;9.98;2.67;;;7.00;99.90;;;;;;5417550;26;20355;-71
2024/04/15 01:21:28;;;;;;;5.93;2.50;;;7.00;99.90;;;;;;5417212;26;20004;-71
2024/04/15 01:23:54;;;;;;;6.38;2.58;;;6.90;99.90;;;;;;5416940;26;20455;-71
2024/04/15 01:26:20;;;;;;;6.97;2.53;;;7.00;99.90;;;;;;5417510;26;20050;-71
2024/04/15 01:28:45;;;;;;;12.23;2.72;;;7.00;99.90;;;;;;5417226;26;20035;-71
2024/04/15 01:31:12;;;;;;;10.85;2.33;;;7.00;99.90;;;;;;5416271;26;19999;-71
2024/04/15 01:33:37;;;;;;;14.15;2.45;;;6.90;99.90;;;;;;5417177;26;20000;-71
2024/04/15 01:36:03;;;;;;;7.05;1.95;;;6.90;99.90;;;;;;5417239;26;20000;-71
2024/04/15 01:38:29;;;;;;;9.85;2.78;;;6.90;99.90;;;;;;5417203;26;20018;-71
2024/04/15 01:40:55;;;;;;;7.10;2.17;;;6.90;99.90;;;;;;5416983;26;20003;-71
2024/04/15 01:43:21;;;;;;;8.07;2.42;;;6.80;99.90;;;;;;5385251;26;20015;-71
2024/04/15 01:45:47;;;;;;;12.70;2.63;;;6.90;99.90;;;;;;5385969;26;20252;-71
2024/04/15 01:48:12;;;;;;;9.20;2.83;;;6.80;99.90;;;;;;5417160;26;20015;-71
2024/04/15 01:50:38;;;;;;;8.82;2.17;;;6.90;99.90;;;;;;5416946;26;20447;-71
2024/04/15 01:53:07;;;;;;;10.15;2.20;;;6.80;99.90;;;;;;5417356;26;20013;-73
2024/04/15 01:55:33;;;;;;;7.65;1.98;;;6.80;99.90;;;;;;5385440;26;20712;-73
2024/04/15 01:57:59;;;;;;;8.63;2.30;;;6.80;99.90;;;;;;5417219;26;20003;-73
2024/04/15 02:00:24;;;;;;;9.88;2.72;;;6.80;99.90;;;;;;5416659;26;19999;-73
2024/04/15 02:02:50;;;;;;;11.13;2.65;;;6.80;99.90;;;;;;5417013;26;20039;-73
2024/04/15 02:05:16;;;;;;;7.57;2.10;;;6.90;99.90;;;;;;5416408;26;20003;-71
2024/04/15 02:07:42;;;;;;;6.32;1.80;;;6.80;99.90;;;;;;5416791;26;20463;-73
2024/04/15 02:10:08;;;;;;;13.98;3.30;;;6.80;99.90;;;;;;5416490;26;20073;-71
2024/04/15 02:12:34;;;;;;;7.80;2.05;;;6.70;99.90;;;;;;5416700;26;20003;-71
2024/04/15 02:15:00;;;;;;;10.30;3.55;;;6.70;99.90;;;;;;5416099;26;20003;-71
2024/04/15 02:17:26;;;;;;;10.30;2.28;;;6.70;99.90;;;;;;5416562;26;20015;-71
2024/04/15 02:19:52;;;;;;;8.02;1.95;;;6.80;99.90;;;;;;5416410;26;20012;-71
2024/04/15 02:22:18;;;;;;;6.47;2.10;;;6.80;99.90;;;;;;5416658;26;20013;-71
2024/04/15 02:24:43;;;;;;;8.05;2.30;;;6.70;99.90;;;;;;5416096;26;20367;-71
2024/04/15 02:27:09;;;;;;;9.52;2.45;;;6.80;99.90;;;;;;5385317;26;20015;-71
2024/04/15 02:29:35;;;;;;;6.80;1.95;;;6.70;99.90;;;;;;5416601;26;20010;-71
2024/04/15 02:32:02;;;;;;;7.93;2.45;;;6.80;99.90;;;;;;5416461;26;20476;-71
2024/04/15 02:34:27;;;;;;;6.95;2.10;;;6.70;99.90;;;;;;5415965;26;20003;-71
2024/04/15 02:36:55;;;;;;;11.07;2.55;;;6.80;99.90;;;;;;5416491;26;20443;-71
2024/04/15 02:39:21;;;;;;;7.97;2.58;;;6.70;99.90;;;;;;5416561;26;20463;-71
2024/04/15 02:41:47;;;;;;;12.63;2.75;;;6.80;99.90;;;;;;5415884;26;20010;-71
2024/04/15 02:44:12;;;;;;;6.78;2.05;;;6.80;99.90;;;;;;5414462;26;20010;-71
2024/04/15 02:46:38;;;;;;;12.13;2.70;;;6.80;99.90;;;;;;5385255;26;19999;-71
2024/04/15 02:49:04;;;;;;;8.95;2.72;;;6.80;99.90;;;;;;5416308;26;20000;-73
2024/04/15 02:51:31;;;;;;;13.43;2.45;;;6.90;99.90;;;;;;5416007;26;20466;-73
2024/04/15 02:53:57;;;;;;;14.38;3.85;;;7.00;99.90;;;;;;5384562;26;20018;-71
2024/04/15 02:56:23;;;;;;;8.95;2.90;;;6.90;99.90;;;;;;5416489;26;20004;-71
2024/04/15 02:58:48;;;;;;;9.23;2.22;;;6.90;99.90;;;;;;5415966;26;20101;-71
2024/04/15 03:01:14;;;;;;;7.10;1.95;;;6.90;99.90;;;;;;5415925;26;20474;-73
2024/04/15 03:03:40;;;;;;;7.90;2.00;;;7.00;99.90;;;;;;5415593;26;19999;-71
2024/04/15 03:06:25;;;;;;;7.18;2.67;;;7.00;99.90;;;;;;5390009;26;20004;-71
2024/04/15 03:08:52;;;;;;;10.98;3.13;;;7.10;99.90;;;;;;5416006;26;20431;-71
2024/04/15 03:11:17;;;;;;;9.65;2.65;;;7.10;99.90;;;;;;5415750;26;20019;-71
2024/04/15 03:13:46;;;;;;;6.72;2.30;;;7.10;99.90;;;;;;5415360;26;20004;-73
2024/04/15 03:16:32;;;;;;;10.52;2.50;;;7.10;99.90;;;;;;5389912;26;20022;-71
2024/04/15 03:18:57;;;;;;;4.45;2.60;;;7.10;99.90;;;;;;5415870;26;20003;-71
2024/04/15 03:21:23;;;;;;;11.85;2.30;;;7.10;99.90;;;;;;5415943;26;20013;-71
2024/04/15 03:24:00;;;;;;;13.10;2.72;;;7.20;99.90;;;;;;5415429;26;20049;-72
2024/04/15 03:26:26;;;;;;;8.10;2.53;;;7.20;99.90;;;;;;5416025;26;20015;-71
2024/04/15 03:28:51;;;;;;;8.07;2.70;;;7.20;99.90;;;;;;5415928;26;20532;-71
2024/04/15 03:31:17;;;;;;;9.70;2.17;;;7.20;99.90;;;;;;5415644;26;20003;-71
2024/04/15 03:33:44;;;;;;;7.35;2.45;;;7.20;99.90;;;;;;5415077;26;20010;-71
2024/04/15 03:36:10;;;;;;;10.18;2.47;;;7.20;99.90;;;;;;5415692;26;20012;-71
2024/04/15 03:38:36;;;;;;;8.93;2.13;;;7.20;99.90;;;;;;5415506;26;20014;-71
2024/04/15 03:41:05;;;;;;;8.05;2.60;;;7.20;99.90;;;;;;5355081;26;20008;-72
2024/04/15 03:43:37;;;;;;;6.60;2.63;;;7.30;99.90;;;;;;5379446;26;20034;-72
2024/04/15 03:46:03;;;;;;;6.93;2.33;;;7.20;99.90;;;;;;5379963;26;20004;-72
2024/04/15 03:48:31;;;;;;;7.25;2.17;;;7.30;99.90;;;;;;5379991;26;20070;-72
2024/04/15 03:51:17;;;;;;;7.28;2.50;;;7.30;99.90;;;;;;5353985;26;20099;-72
2024/04/15 03:53:42;;;;;;;4.43;2.15;;;7.30;99.90;;;;;;5378837;26;20015;-72
2024/04/15 03:56:08;;;;;;;9.13;2.40;;;7.30;99.90;;;;;;5379866;26;20044;-71
2024/04/15 03:58:52;;;;;;;9.65;2.92;;;7.30;99.90;;;;;;5379782;26;20011;-72
2024/04/15 04:01:18;;;;;;;7.00;3.28;;;7.30;99.90;;;;;;5379496;26;20000;-72
2024/04/15 04:03:47;;;;;;;7.88;2.60;;;7.40;99.90;;;;;;5379138;26;20004;-72
2024/04/15 04:06:13;;;;;;;10.10;2.83;;;7.40;99.90;;;;;;5379750;26;20073;-72
2024/04/15 04:08:39;;;;;;;8.20;2.97;;;7.30;99.90;;;;;;5379407;26;20020;-72
2024/04/15 04:11:22;;;;;;;4.40;2.70;;;7.50;99.90;;;;;;5379105;26;20015;-71
2024/04/15 04:13:48;;;;;;;7.60;2.85;;;7.30;99.90;;;;;;5378997;26;20004;-71
2024/04/15 04:16:13;;;;;;;5.43;2.00;;;7.40;99.90;;;;;;5379556;26;20015;-71
2024/04/15 04:18:39;;;;;;;10.95;2.95;;;7.30;99.90;;;;;;5379772;26;20672;-71
2024/04/15 04:21:25;;;;;;;8.20;3.50;;;7.40;99.90;;;;;;5353569;26;20019;-71
2024/04/15 04:23:57;;;;;;;6.85;2.42;;;7.40;99.90;;;;;;5378772;26;20023;-71
2024/04/15 04:26:22;;;;;;;7.03;2.17;;;7.40;99.90;;;;;;5379649;26;20004;-71
2024/04/15 04:28:48;;;;;;;8.23;3.42;;;7.40;99.90;;;;;;5379226;26;20008;-71
2024/04/15 04:31:14;;;;;;;10.20;3.00;;;7.40;99.90;;;;;;5378919;26;20037;-71
2024/04/15 04:33:39;;;;;;;7.15;2.15;;;7.40;99.90;;;;;;5378605;26;20035;-71
2024/04/15 04:36:06;;;;;;;12.57;2.30;;;7.50;99.90;;;;;;5379268;26;20016;-71
2024/04/15 04:38:32;;;;;;;6.93;3.00;;;7.50;99.90;;;;;;5378602;26;20015;-71
2024/04/15 04:40:58;;;;;;;9.95;2.33;;;7.50;99.90;;;;;;5378298;26;20016;-71
2024/04/15 04:43:24;;;;;;;11.93;3.22;;;7.50;99.90;;;;;;5378383;26;20479;-71
2024/04/15 04:45:50;;;;;;;9.77;2.55;;;7.50;99.90;;;;;;5378595;26;20004;-71
2024/04/15 04:48:16;;;;;;;7.93;2.90;;;7.50;99.90;;;;;;5378689;26;20710;-71
2024/04/15 04:50:42;;;;;;;5.75;2.67;;;7.60;99.90;;;;;;5378610;26;20011;-71
2024/04/15 04:53:08;;;;;;;5.53;2.53;;;7.50;99.90;;;;;;5378720;26;20005;-71
2024/04/15 04:55:36;;;;;;;5.70;2.55;;;7.50;99.90;;;;;;5378196;26;20041;-71
2024/04/15 04:58:08;;;;;;;6.05;2.92;;;7.50;99.90;;;;;;5378724;26;20004;-71
2024/04/15 05:00:34;;;;;;;8.52;3.03;;;7.60;99.90;;;;;;5378550;26;20004;-71
2024/04/15 05:03:00;;;;;;;7.97;3.10;;;7.60;99.90;;;;;;5378793;26;20015;-71
2024/04/15 05:05:25;;;;;;;8.60;2.83;;;7.50;99.90;;;;;;5377975;26;20012;-71
2024/04/15 05:07:51;;;;;;;3.05;2.15;;;7.50;99.90;;;;;;5381934;26;20019;-71
2024/04/15 05:10:17;;;;;;;6.35;2.90;;;7.50;99.90;;;;;;5381825;26;20011;-71
2024/04/15 05:12:42;;;;;;;8.32;3.53;;;7.50;99.90;;;;;;5382177;26;20004;-71
2024/04/15 05:15:08;;;;;;;6.80;2.42;;;7.50;99.90;;;;;;5381842;26;20000;-71
2024/04/15 05:17:35;;;;;;;7.22;2.80;;;7.60;99.90;;;;;;5382006;26;20004;-71
2024/04/15 05:20:01;;;;;;;9.60;2.83;;;7.60;99.90;;;;;;5381827;26;20492;-72
2024/04/15 05:22:26;;;;;;;7.30;2.53;;;7.60;99.90;;;;;;5381481;26;20364;-71
2024/04/15 05:24:53;;;;;;;8.88;3.40;;;7.70;99.90;;;;;;5381270;26;20005;-71
2024/04/15 05:27:19;;;;;;;7.35;3.25;;;7.70;99.90;;;;;;5351584;26;20004;-71
2024/04/15 05:29:45;;;;;;;6.63;3.55;;;7.70;99.90;;;;;;5381681;26;20019;-71
2024/04/15 05:32:10;;;;;;;8.55;2.97;;;7.80;99.90;;;;;;5381851;26;20004;-72
2024/04/15 05:34:37;;;;;;;11.30;2.85;;;7.90;99.90;;;;;;5381171;26;20417;-72
2024/04/15 05:37:05;;;;;;;7.90;2.78;;;8.10;99.90;;;;;;5381836;26;20027;-72
2024/04/15 05:39:31;;;;;;;7.38;2.70;;;8.40;99.90;;;;;;5351047;26;20004;-72
2024/04/15 05:41:57;;;;;;;6.57;2.80;;;8.50;99.90;;;;;;5381454;26;20004;-72
2024/04/15 05:44:23;;;;;;;7.13;2.50;;;8.70;99.90;;;;;;5381076;26;20016;-72
2024/04/15 05:46:51;;;;;;;5.38;3.05;;;8.90;99.90;;;;;;5381815;26;20004;-72
2024/04/15 05:49:17;;;;;;;7.40;3.15;;;9.00;99.90;;;;;;5381729;26;20078;-72
2024/04/15 05:51:45;;;;;;;9.02;3.17;;;9.30;99.90;;;;;;5381553;26;20008;-72
2024/04/15 05:54:11;;;;;;;11.80;4.05;;;9.50;99.90;;;;;;5403827;26;20018;-72
2024/04/15 05:56:37;;;;;;;10.65;3.40;;;9.70;99.90;;;;;;5416947;26;20007;-71
2024/04/15 05:59:02;;;;;;;10.27;3.63;;;9.90;99.90;;;;;;5416853;26;20372;-71
2024/04/15 06:01:28;;;;;;;13.77;3.35;;;9.70;99.90;;;;;;5416718;26;20015;-71
2024/04/15 06:03:54;;;;;;;14.05;4.05;;;9.60;99.90;;;;;;5416243;26;20355;-71
2024/04/15 06:06:20;;;;;;;8.00;3.33;;;9.40;99.90;;;;;;5416995;26;20000;-71
2024/04/15 06:08:45;;;;;;;17.40;4.10;;;9.30;99.90;;;;;;5416854;26;20366;-71
2024/04/15 06:11:11;;;;;;;12.55;3.90;;;9.10;99.90;;;;;;5416573;26;20007;-71
2024/04/15 06:13:37;;;;;;;8.50;3.67;;;9.10;99.90;;;;;;5416179;26;20824;-71
2024/04/15 06:16:03;;;;;;;7.07;3.42;;;9.00;99.90;;;;;;5416942;26;20003;-71
2024/04/15 06:18:28;;;;;;;8.00;3.88;;;9.00;99.90;;;;;;5416445;26;20010;-71
2024/04/15 06:20:54;;;;;;;12.32;4.38;;;9.00;99.90;;;;;;5416326;26;20004;-71
2024/04/15 06:23:20;;;;;;;13.10;4.03;;;9.10;99.90;;;;;;5416196;26;20003;-71
2024/04/15 06:25:52;;;;;;;8.98;3.35;;;9.10;99.90;;;;;;5416714;26;20409;-71
2024/04/15 06:28:18;;;;;;;8.90;3.37;;;9.10;99.90;;;;;;5416636;26;20003;-71
2024/04/15 06:30:45;;;;;;;13.30;4.20;;;9.10;99.90;;;;;;5416077;26;20076;-71
2024/04/15 06:33:11;;;;;;;11.07;3.97;;;9.00;99.90;;;;;;5416581;26;20011;-71
2024/04/15 06:35:37;;;;;;;8.60;3.78;;;9.20;99.90;;;;;;5415963;26;20014;-71
2024/04/15 06:38:03;;;;;;;11.77;4.30;;;9.70;99.90;;;;;;5416187;26;20010;-71
2024/04/15 06:40:30;;;;;;;7.60;4.15;;;10.00;99.90;;;;;;5416275;26;20007;-71
2024/04/15 06:42:56;;;;;;;7.90;3.55;;;10.10;99.90;;;;;;5416448;26;20072;-71
2024/04/15 06:45:22;;;;;;;14.60;4.60;;;10.60;99.90;;;;;;5415776;26;20004;-70
2024/04/15 06:47:49;;;;;;;10.60;3.70;;;11.00;99.90;;;;;;5416330;26;20003;-71
2024/04/15 06:50:16;;;;;;;6.88;3.58;;;11.40;99.90;;;;;;5384874;26;20405;-71
2024/04/15 06:52:41;;;;;;;4.97;3.20;;;11.80;99.90;;;;;;5416178;26;20043;-71
2024/04/15 06:55:07;;;;;;;8.80;4.20;;;12.20;99.90;;;;;;5415941;26;20501;-71
2024/04/15 06:57:33;;;;;;;8.75;3.83;;;12.60;99.90;;;;;;5416281;26;20479;-71
2024/04/15 06:59:59;;;;;;;13.70;3.35;;;12.80;99.90;;;;;;5415798;26;20014;-71
2024/04/15 07:02:25;;;;;;;8.60;4.22;;;13.10;99.90;;;;;;5416235;26;20007;-71
2024/04/15 07:04:52;;;;;;;5.15;2.75;;;13.10;99.90;;;;;;5415482;26;20004;-71
2024/04/15 07:07:21;;;;;;;8.50;3.13;;;13.30;99.90;;;;;;5415927;26;20031;-71
2024/04/15 07:09:47;;;;;;;7.88;2.92;;;13.40;99.90;;;;;;5415840;26;20076;-71
2024/04/15 07:12:13;;;;;;;14.65;3.65;;;13.60;99.90;;;;;;5416003;26;20015;-71
2024/04/15 07:14:39;;;;;;;6.35;3.00;;;13.50;99.90;;;;;;5415317;26;20003;-71
2024/04/15 07:17:05;;;;;;;6.97;2.70;;;13.40;99.90;;;;;;5415946;26;20038;-71
2024/04/15 07:19:30;;;;;;;8.20;2.63;;;13.30;99.90;;;;;;5416166;26;20015;-71
2024/04/15 07:21:56;;;;;;;9.43;3.42;;;13.10;99.90;;;;;;5415588;26;20010;-71
2024/04/15 07:24:22;;;;;;;12.27;2.90;;;13.20;99.90;;;;;;5415253;26;20043;-71
2024/04/15 07:26:48;;;;;;;9.75;3.28;;;13.30;99.90;;;;;;5415752;26;20479;-71
2024/04/15 07:29:13;;;;;;;11.45;3.17;;;13.50;99.90;;;;;;5414832;26;20003;-70
2024/04/15 07:31:39;;;;;;;11.23;3.13;;;13.70;99.90;;;;;;5415443;26;20015;-71
2024/04/15 07:34:06;;;;;;;10.45;2.63;;;13.90;99.90;;;;;;5415156;26;20014;-71
2024/04/15 07:36:31;;;;;;;14.32;3.50;;;13.50;99.90;;;;;;5415594;26;20459;-71
2024/04/15 07:38:58;;;;;;;6.93;2.78;;;13.30;99.90;;;;;;5415654;26;20010;-71
2024/04/15 07:41:25;;;;;;;12.55;3.40;;;13.10;99.90;;;;;;5415433;26;20012;-71
2024/04/15 07:43:50;;;;;;;11.68;3.65;;;13.00;99.90;;;;;;5414996;26;19999;-71
2024/04/15 07:46:16;;;;;;;10.20;2.97;;;12.80;99.90;;;;;;5415699;26;20340;-71
2024/04/15 07:48:42;;;;;;;10.75;2.88;;;12.70;99.90;;;;;;5415439;26;20500;-71
2024/04/15 07:51:08;;;;;;;7.75;2.65;;;12.60;99.90;;;;;;5415399;26;20455;-71
2024/04/15 07:53:33;;;;;;;10.05;3.53;;;12.50;99.90;;;;;;5414787;26;20029;-71
2024/04/15 07:55:59;;;;;;;7.93;2.55;;;12.40;99.90;;;;;;5415284;26;20447;-71
2024/04/15 07:58:25;;;;;;;8.35;2.97;;;12.50;99.90;;;;;;5384157;26;20003;-71
2024/04/15 08:00:51;;;;;;;6.57;3.08;;;12.60;99.90;;;;;;5415427;26;20015;-71
2024/04/15 08:03:16;;;;;;;8.90;2.33;;;12.50;99.90;;;;;;5414900;26;20003;-71
2024/04/15 08:05:43;;;;;;;8.85;2.63;;;12.50;99.90;;;;;;5414950;26;20363;-71
2024/04/15 08:08:08;;;;;;;9.93;3.05;;;12.50;99.90;;;;;;5414930;26;20004;-71
2024/04/15 08:10:35;;;;;;;11.00;2.50;;;12.40;99.90;;;;;;5414794;26;20011;-71
2024/04/15 08:13:00;;;;;;;12.38;3.40;;;12.40;99.90;;;;;;5414253;26;20022;-71
2024/04/15 08:15:26;;;;;;;9.73;2.95;;;12.30;99.90;;;;;;5414208;26;20003;-71
2024/04/15 08:17:52;;;;;;;8.75;2.30;;;12.50;99.90;;;;;;5414969;26;20012;-71
2024/04/15 08:20:17;;;;;;;8.40;3.38;;;12.70;99.90;;;;;;5414557;26;20472;-71
2024/04/15 08:22:47;;;;;;;9.50;3.75;;;12.70;99.90;;;;;;5383519;26;20014;-71
2024/04/15 08:25:13;;;;;;;10.70;3.20;;;12.80;99.90;;;;;;5414253;26;20000;-71
2024/04/15 08:27:39;;;;;;;15.95;4.50;;;12.80;99.90;;;;;;5414324;26;20014;-71
2024/04/15 08:30:06;;;;;;;13.45;3.97;;;12.80;99.90;;;;;;5414596;26;20010;-71
2024/04/15 08:32:33;;;;;;;8.80;2.80;;;12.70;99.90;;;;;;5383285;26;20074;-71
2024/04/15 08:34:59;;;;;;;6.95;3.10;;;12.70;99.90;;;;;;5413608;26;20003;-71
2024/04/15 08:37:24;;;;;;;10.55;3.80;;;12.80;99.90;;;;;;5414226;26;20355;-71
2024/04/15 08:39:52;;;;;;;10.82;4.20;;;12.80;99.90;;;;;;5383213;26;20043;-71
2024/04/15 08:42:50;;;;;;;9.02;4.55;;;12.90;99.90;;;;;;5416724;26;19999;-71
2024/04/15 08:45:20;;;;;;;9.35;3.83;;;12.90;99.90;;;;;;5417599;26;20003;-71
2024/04/15 08:47:52;;;;;;;10.40;3.42;;;13.10;99.90;;;;;;5417752;26;20004;-71
2024/04/15 08:50:22;;;;;;;7.60;3.30;;;13.30;99.90;;;;;;5417713;26;20491;-71
2024/04/15 08:52:58;;;;;;;11.70;3.38;;;13.40;99.90;;;;;;5386687;26;20004;-72
2024/04/15 08:55:25;;;;;;;7.93;3.78;;;13.30;99.90;;;;;;5386249;26;20000;-71
2024/04/15 08:57:52;;;;;;;8.27;3.75;;;13.40;99.90;;;;;;5417815;26;20003;-71
2024/04/15 09:00:20;;;;;;;7.30;3.17;;;13.50;99.90;;;;;;5417623;26;20383;-71
2024/04/15 09:02:46;;;;;;;10.30;3.33;;;13.50;99.90;;;;;;5417736;26;20344;-71
2024/04/15 09:05:12;;;;;;;7.68;3.58;;;13.60;99.90;;;;;;5417237;26;20394;-71
2024/04/15 09:07:39;;;;;;;8.57;3.30;;;13.60;99.90;;;;;;5416792;26;20015;-71
2024/04/15 09:10:06;;;;;;;8.18;3.10;;;13.60;99.90;;;;;;5417530;26;20007;-71
2024/04/15 09:12:36;;;;;;;9.73;3.67;;;13.80;99.90;;;;;;5386231;26;20003;-71
2024/04/15 09:15:02;;;;;;;6.72;2.58;;;13.60;99.90;;;;;;5417119;26;20037;-71
2024/04/15 09:17:29;;;;;;;8.95;3.15;;;13.50;99.90;;;;;;5417327;26;20003;-71
2024/04/15 09:19:57;;;;;;;10.88;3.33;;;13.30;99.90;;;;;;5417352;26;20054;-71
2024/04/15 09:22:31;;;;;;;7.78;2.58;;;13.30;99.90;;;;;;5417622;26;20004;-71
2024/04/15 09:24:57;;;;;;;5.60;2.80;;;13.10;99.90;;;;;;5416903;26;20004;-71
2024/04/15 09:27:26;;;;;;;6.55;2.17;;;13.10;99.90;;;;;;5417335;26;20014;-71
2024/04/15 09:29:56;;;;;;;11.27;3.10;;;13.30;99.90;;;;;;5417427;26;20004;-71
2024/04/15 09:32:22;;;;;;;9.27;2.75;;;13.70;99.90;;;;;;5417434;26;20003;-71
2024/04/15 09:34:53;;;;;;;6.68;2.70;;;14.10;99.90;;;;;;5416483;26;20000;-71
2024/04/15 09:37:19;;;;;;;5.25;2.60;;;14.50;99.90;;;;;;5417137;26;20362;-71
2024/04/15 09:39:45;;;;;;;6.65;2.33;;;14.50;99.90;;;;;;5417052;26;20003;-71
2024/04/15 09:42:15;;;;;;;6.28;1.90;;;14.40;99.90;;;;;;5417356;26;20003;-71
2024/04/15 09:44:45;;;;;;;8.82;1.80;;;14.20;99.90;;;;;;5416456;26;20003;-71
2024/04/15 09:47:15;;;;;;;6.53;1.73;;;14.20;99.90;;;;;;5416938;26;20463;-72
2024/04/15 09:49:41;;;;;;;3.55;2.00;;;14.00;99.90;;;;;;5417088;26;20015;-71
2024/04/15 09:52:11;;;;;;;4.82;1.90;;;13.90;99.90;;;;;;5416355;26;20003;-71
2024/04/15 09:54:41;;;;;;;7.72;1.90;;;13.80;99.90;;;;;;5416542;26;20003;-71
2024/04/15 09:57:28;;;;;;;7.13;1.55;;;13.80;99.90;;;;;;5416963;26;20015;-71
2024/04/15 09:59:58;;;;;;;2.78;1.48;;;13.70;99.90;;;;;;5416952;26;20018;-71
2024/04/15 10:02:37;;;;;;;7.55;1.83;;;13.60;99.90;;;;;;5417096;26;20077;-71
2024/04/15 10:05:10;;;;;;;7.35;1.73;;;13.50;99.90;;;;;;5416545;26;20467;-71
2024/04/15 10:07:40;;;;;;;4.32;1.08;;;13.30;99.90;;;;;;5416460;26;20044;-71
2024/04/15 10:10:09;;;;;;;7.05;2.05;;;13.50;99.90;;;;;;5417009;26;20011;-71
2024/04/15 10:12:35;;;;;;;4.90;1.38;;;13.50;99.90;;;;;;5416993;26;20004;-71
2024/04/15 10:15:01;;;;;;;5.70;1.55;;;13.30;99.90;;;;;;5415938;26;20004;-71
2024/04/15 10:17:27;;;;;;;7.90;1.50;;;13.20;99.90;;;;;;5416443;26;20009;-71
2024/04/15 10:19:53;;;;;;;4.55;1.48;;;13.20;99.90;;;;;;5415756;26;20004;-70
2024/04/15 10:22:22;;;;;;;6.15;1.45;;;13.30;99.90;;;;;;5416723;26;20008;-69
2024/04/15 10:24:48;;;;;;;3.53;1.40;;;13.40;99.90;;;;;;5383891;26;20003;-69
2024/04/15 10:27:14;;;;;;;3.97;1.20;;;13.40;99.90;;;;;;5416548;26;20037;-69
2024/04/15 10:29:41;;;;;;;3.15;1.23;;;13.60;99.90;;;;;;5416557;26;20015;-70
2024/04/15 10:32:08;;;;;;;5.57;1.90;;;13.60;99.90;;;;;;5416213;26;20464;-70
2024/04/15 10:34:40;;;;;;;6.78;1.42;;;13.70;99.90;;;;;;5415861;26;20077;-69
2024/04/15 10:37:11;;;;;;;7.50;1.90;;;13.70;99.90;;;;;;5416645;26;20455;-69
2024/04/15 10:39:46;;;;;;;4.28;1.33;;;13.80;99.90;;;;;;5416677;26;20011;-69
2024/04/15 10:42:12;;;;;;;4.32;1.67;;;13.80;99.90;;;;;;5416402;26;20006;-70
2024/04/15 10:44:38;;;;;;;6.43;1.40;;;13.70;99.90;;;;;;5415683;26;20011;-69
2024/04/15 10:47:05;;;;;;;7.93;1.92;;;13.60;99.90;;;;;;5416117;26;20351;-70
2024/04/15 10:49:31;;;;;;;5.35;1.40;;;13.60;99.90;;;;;;5415282;26;20076;-69
2024/04/15 10:51:57;;;;;;;7.38;1.52;;;13.50;99.90;;;;;;5415990;26;20077;-70
2024/04/15 10:54:23;;;;;;;6.00;1.40;;;13.40;99.90;;;;;;5415086;26;20007;-69
2024/04/15 10:56:48;;;;;;;3.92;1.20;;;13.20;99.90;;;;;;5415744;26;20529;-70
2024/04/15 10:59:15;;;;;;;2.15;1.25;;;13.00;99.90;;;;;;5416367;26;20012;-70
2024/04/15 11:01:45;;;;;;;6.45;1.80;;;12.90;99.90;;;;;;5415698;26;20072;-70
2024/04/15 11:04:11;;;;;;;4.43;1.58;;;12.80;99.90;;;;;;5414122;26;20012;-70
2024/04/15 11:06:37;;;;;;;6.28;1.45;;;12.60;99.90;;;;;;5385005;26;20077;-70
2024/04/15 11:09:06;;;;;;;5.50;1.80;;;12.60;99.90;;;;;;5416343;26;20017;-70
2024/04/15 11:11:33;;;;;;;3.83;1.80;;;12.60;99.90;;;;;;5415915;26;20004;-70
2024/04/15 11:13:59;;;;;;;5.35;1.77;;;12.60;99.90;;;;;;5415533;26;20007;-70
2024/04/15 11:16:25;;;;;;;3.85;2.00;;;12.70;99.90;;;;;;5384679;26;20004;-70
2024/04/15 11:18:51;;;;;;;7.15;2.08;;;12.90;99.90;;;;;;5415959;26;20470;-70
2024/04/15 11:21:17;;;;;;;5.70;2.30;;;13.00;99.90;;;;;;5415750;26;20004;-69
2024/04/15 11:23:42;;;;;;;6.10;2.70;;;13.00;99.90;;;;;;5415159;26;20004;-69
2024/04/15 11:26:12;;;;;;;10.52;3.33;;;13.20;99.90;;;;;;5384720;26;20018;-69
2024/04/15 11:28:39;;;;;;;7.28;2.85;;;13.20;99.90;;;;;;5415489;26;20004;-69
2024/04/15 11:31:05;;;;;;;7.72;3.15;;;13.00;99.90;;;;;;5414539;26;20019;-69
2024/04/15 11:33:31;;;;;;;9.23;3.53;;;12.70;99.90;;;;;;5414818;26;20033;-69
2024/04/15 11:35:57;;;;;;;9.02;3.80;;;12.50;99.90;;;;;;5415630;26;20018;-69
2024/04/15 11:38:26;;;;;;;6.68;3.65;;;12.10;99.90;;;;;;5415626;26;20459;-69
2024/04/15 11:40:52;;;;;;;8.43;4.03;;;11.90;99.90;;;;;;5415509;26;20003;-69
2024/04/15 11:43:19;;;;;;;6.88;4.28;;;11.60;99.90;;;;;;5414821;26;20459;-69
2024/04/15 11:45:49;;;;;;;9.13;4.55;;;11.40;99.90;;;;;;5384370;26;20003;-69
2024/04/15 11:48:15;;;;;;;8.30;5.30;;;11.40;99.90;;;;;;5415530;26;20072;-70
2024/04/15 11:50:42;;;;;;;8.57;5.10;;;11.30;99.90;;;;;;5415152;26;20015;-70
2024/04/15 11:53:08;;;;;;;9.65;5.50;;;11.30;99.90;;;;;;5415458;26;20003;-69
2024/04/15 11:55:35;;;;;;;13.70;5.57;;;11.20;99.90;;;;;;5412223;26;20011;-69
2024/04/15 11:58:01;;;;;;;11.77;6.10;;;11.30;99.90;;;;;;5400455;26;20060;-69
2024/04/15 12:00:27;;;;;;;8.82;5.78;;;11.30;99.90;;;;;;5403641;26;20004;-70
2024/04/15 12:02:52;;;;;;;11.55;5.45;;;11.40;99.90;;;;;;5409870;26;20007;-69
2024/04/15 12:05:18;;;;;;;9.00;5.60;;;11.40;99.90;;;;;;5413641;26;20015;-69
2024/04/15 12:07:44;;;;;;;7.28;4.72;;;11.30;99.90;;;;;;5407660;21;20463;-70
2024/04/15 12:10:11;;;;;;;8.80;5.47;;;11.30;99.90;;;;;;5414163;26;20003;-70
2024/04/15 12:12:38;;;;;;;6.93;5.28;;;11.30;99.90;;;;;;5415093;26;20015;-69
2024/04/15 12:15:05;;;;;;;9.55;5.35;;;11.40;99.90;;;;;;5413968;26;20003;-69
2024/04/15 12:17:31;;;;;;;11.13;4.85;;;11.40;99.90;;;;;;5415196;26;20347;-70
2024/04/15 12:19:57;;;;;;;9.93;5.60;;;11.50;99.90;;;;;;5414675;26;20004;-69
2024/04/15 12:22:22;;;;;;;8.65;4.82;;;11.40;99.90;;;;;;5414954;26;19999;-70
2024/04/15 12:24:48;;;;;;;11.38;5.05;;;11.30;99.90;;;;;;5414162;26;20004;-70
2024/04/15 12:27:14;;;;;;;11.45;5.40;;;11.20;99.90;;;;;;5414775;26;20433;-72
2024/04/15 12:29:39;;;;;;;8.32;5.03;;;11.20;99.90;;;;;;5414704;26;20011;-72
2024/04/15 12:32:05;;;;;;;8.50;5.10;;;11.20;99.90;;;;;;5413764;26;20023;-71
2024/04/15 12:34:35;;;;;;;9.15;5.00;;;11.30;99.90;;;;;;5414062;26;20058;-71
2024/04/15 12:37:01;;;;;;;7.57;4.53;;;11.20;99.90;;;;;;5414864;26;20003;-71
2024/04/15 12:39:26;;;;;;;10.07;4.75;;;11.20;99.90;;;;;;5414590;26;20015;-72
2024/04/15 12:41:53;;;;;;;8.07;4.45;;;11.20;99.90;;;;;;5414515;26;20003;-72
2024/04/15 12:44:23;;;;;;;6.43;4.20;;;11.20;99.90;;;;;;5414378;26;20351;-72
2024/04/15 12:46:49;;;;;;;7.78;4.20;;;11.20;99.90;;;;;;5414602;26;20129;-72
2024/04/15 12:49:15;;;;;;;7.38;4.25;;;11.20;99.90;;;;;;5414259;26;20015;-72